Unabara — JI3188 — position and weather

sailwx.info

Track history (hours):
 
Tides and Currents Weather Stations Pressure Air Temp Water Temp Dewpoint Dewpoint Depression Visibility Wind Speed Wind Dir Waves Ship Positions

Unabara

Last reported at 2018-Apr-26 00:00 UTC. Time now 2018-Apr-26 03:32 UTC.
Position N 34°15' E 135°07'.

Length 30 m.

Type: Tug. MMSI: 431008888.

Date/timePositionNaut miles runAvg speedWind from/ knotsBaromVisibWave heightAir tempDewpointWater temp
2018-Apr-26 00:00N 34°15' E 135°07'1 1.7
2018-Apr-25 23:30N 34°14' E 135°08'2 2.9
2018-Apr-25 22:50N 34°14' E 135°05'1 4.2
2018-Apr-25 22:30N 34°13' E 135°06'2 3.3
2018-Apr-25 21:58N 34°14' E 135°08'  
2018-Apr-23 08:40N 34°15' E 135°07'1 6.6
2018-Apr-23 08:30N 34°15' E 135°06'5 9.9
2018-Apr-23 08:00N 34°19' E 135°05'611.8
2018-Apr-23 07:30N 34°24' E 135°09'612.0
2018-Apr-23 07:00N 34°29' E 135°13'612.0
2018-Apr-23 06:31N 34°33' E 135°18'612.1
2018-Apr-23 06:01N 34°38' E 135°23'5 8.0
2018-Apr-23 05:26N 34°38' E 135°28'0 0.0
2018-Apr-23 04:59N 34°38' E 135°28'0 0.0
2018-Apr-23 04:29N 34°38' E 135°28'0 0.0
2018-Apr-23 03:59N 34°38' E 135°28'1 2.6
2018-Apr-23 03:30N 34°38' E 135°27'2 4.7
2018-Apr-23 03:00N 34°39' E 135°25'3 6.2
2018-Apr-23 02:31N 34°38' E 135°28'0 0.6
2018-Apr-23 01:59N 34°38' E 135°29'  
Track history (hours):
 
Tides and Currents Weather Stations Pressure Air Temp Water Temp Dewpoint Dewpoint Depression Visibility Wind Speed Wind Dir Waves Ship Positions

Unabara

Last reported at 2018-Apr-26 00:00 UTC. Time now 2018-Apr-26 03:32 UTC.
Position N 34°15' E 135°07'.

Length 30 m.

Type: Tug. MMSI: 431008888.

Date/timePositionNaut miles runAvg speedWind from/ knotsBaromVisibWave heightAir tempDewpointWater temp
2018-Apr-26 00:00N 34°15' E 135°07'1 1.7
2018-Apr-25 23:30N 34°14' E 135°08'2 2.9
2018-Apr-25 22:50N 34°14' E 135°05'1 4.2
2018-Apr-25 22:30N 34°13' E 135°06'2 3.3
2018-Apr-25 21:58N 34°14' E 135°08'  
2018-Apr-23 08:40N 34°15' E 135°07'1 6.6
2018-Apr-23 08:30N 34°15' E 135°06'5 9.9
2018-Apr-23 08:00N 34°19' E 135°05'611.8
2018-Apr-23 07:30N 34°24' E 135°09'612.0
2018-Apr-23 07:00N 34°29' E 135°13'612.0
2018-Apr-23 06:31N 34°33' E 135°18'612.1
2018-Apr-23 06:01N 34°38' E 135°23'5 8.0
2018-Apr-23 05:26N 34°38' E 135°28'0 0.0
2018-Apr-23 04:59N 34°38' E 135°28'0 0.0
2018-Apr-23 04:29N 34°38' E 135°28'0 0.0
2018-Apr-23 03:59N 34°38' E 135°28'1 2.6
2018-Apr-23 03:30N 34°38' E 135°27'2 4.7
2018-Apr-23 03:00N 34°39' E 135°25'3 6.2
2018-Apr-23 02:31N 34°38' E 135°28'0 0.6
2018-Apr-23 01:59N 34°38' E 135°29'  

Dump ship's entire track history